Time;durP1;ratioP1;P1;durP2;ratioP2;P2;SDS_P1;SDS_P2;PMS_P1;PMS_P2;Temp;Humidity;BMP_temperature;BMP_pressure;BME280_temperature;BME280_humidity;BME280_pressure;Samples;Min_cycle;Max_cycle;Signal;HPM_P1;HPM_P2
2023/03/06 00:00:32;;;;;;;8.85;2.17;;;3.80;99.90;;;;;;5093115;28;20044;-74
2023/03/06 00:02:58;;;;;;;7.55;2.03;;;3.80;99.90;;;;;;5093385;28;20074;-74
2023/03/06 00:05:24;;;;;;;5.50;2.33;;;3.80;99.90;;;;;;5093134;28;20475;-74
2023/03/06 00:07:50;;;;;;;7.18;1.60;;;3.80;99.90;;;;;;5095372;28;20044;-74
2023/03/06 00:10:19;;;;;;;5.77;1.60;;;3.80;99.90;;;;;;5096863;28;20132;-74
2023/03/06 00:12:44;;;;;;;6.88;1.30;;;3.90;99.90;;;;;;5096819;28;20056;-74
2023/03/06 00:15:12;;;;;;;5.33;1.40;;;3.90;99.90;;;;;;5096697;28;20522;-74
2023/03/06 00:17:38;;;;;;;6.65;1.45;;;4.00;99.90;;;;;;5096740;28;20048;-74
2023/03/06 00:20:05;;;;;;;7.72;1.60;;;4.10;99.90;;;;;;5095525;28;20055;-73
2023/03/06 00:22:31;;;;;;;9.70;1.80;;;4.10;99.90;;;;;;5096611;28;20132;-74
2023/03/06 00:24:57;;;;;;;2.73;1.37;;;4.10;99.90;;;;;;5096543;28;20119;-75
2023/03/06 00:27:25;;;;;;;8.07;1.67;;;4.10;99.90;;;;;;5095347;28;20044;-74
2023/03/06 00:29:55;;;;;;;4.28;1.20;;;4.10;99.90;;;;;;5079378;28;20078;-74
2023/03/06 00:32:21;;;;;;;10.02;1.40;;;4.00;99.90;;;;;;5096494;28;20079;-74
2023/03/06 00:34:48;;;;;;;7.30;1.40;;;4.00;99.90;;;;;;5096293;28;20044;-74
2023/03/06 00:37:15;;;;;;;4.28;1.15;;;4.00;99.90;;;;;;5078404;28;20112;-75
2023/03/06 00:39:40;;;;;;;3.92;1.30;;;4.00;99.90;;;;;;5096183;28;20052;-74
2023/03/06 00:42:06;;;;;;;9.73;2.10;;;4.10;99.90;;;;;;5096163;28;20059;-75
2023/03/06 00:44:32;;;;;;;7.40;1.27;;;4.10;99.90;;;;;;5094965;28;20137;-74
2023/03/06 00:46:57;;;;;;;7.00;1.20;;;4.10;99.90;;;;;;5096660;28;20135;-74
2023/03/06 00:49:23;;;;;;;8.33;1.73;;;4.10;99.90;;;;;;5095200;28;20357;-74
2023/03/06 00:51:49;;;;;;;5.50;1.47;;;4.10;99.90;;;;;;5095952;28;20040;-73
2023/03/06 00:54:15;;;;;;;6.73;1.67;;;4.00;99.90;;;;;;5095904;28;20139;-74
2023/03/06 00:56:40;;;;;;;6.17;1.63;;;4.10;99.90;;;;;;5095804;28;20379;-74
2023/03/06 00:59:06;;;;;;;6.87;1.63;;;4.10;99.90;;;;;;5095695;28;20052;-74
2023/03/06 01:01:32;;;;;;;5.60;1.50;;;4.00;99.90;;;;;;5094938;28;20047;-73
2023/03/06 01:03:58;;;;;;;5.13;1.40;;;4.10;99.90;;;;;;5095577;28;20127;-74
2023/03/06 01:06:23;;;;;;;3.17;1.40;;;4.10;99.90;;;;;;5096435;28;20044;-74
2023/03/06 01:08:49;;;;;;;4.60;1.73;;;4.10;99.90;;;;;;5095645;28;20059;-74
2023/03/06 01:11:15;;;;;;;5.23;1.47;;;4.10;99.90;;;;;;5095713;28;20055;-73
2023/03/06 01:13:40;;;;;;;5.13;1.33;;;4.10;99.90;;;;;;5095599;28;20109;-73
2023/03/06 01:16:08;;;;;;;6.53;2.23;;;4.10;99.90;;;;;;5094312;28;20376;-73
2023/03/06 01:18:34;;;;;;;6.20;1.30;;;4.10;99.90;;;;;;5095462;28;20380;-73
2023/03/06 01:21:00;;;;;;;3.70;1.30;;;4.00;99.90;;;;;;5095969;28;20044;-73
2023/03/06 01:23:26;;;;;;;3.07;1.00;;;4.00;99.90;;;;;;5095370;28;20149;-73
2023/03/06 01:25:52;;;;;;;3.50;1.20;;;4.00;99.90;;;;;;5094953;28;20483;-73
2023/03/06 01:28:17;;;;;;;3.13;1.20;;;3.90;99.90;;;;;;5094336;28;20126;-73
2023/03/06 01:30:43;;;;;;;3.47;1.10;;;3.90;99.90;;;;;;5095104;28;20052;-74
2023/03/06 01:33:09;;;;;;;2.97;1.10;;;3.90;99.90;;;;;;5095371;28;20066;-73
2023/03/06 01:35:37;;;;;;;7.65;1.85;;;3.90;99.90;;;;;;5095362;28;20044;-74
2023/03/06 01:38:03;;;;;;;3.05;1.10;;;3.90;99.90;;;;;;5095703;28;20083;-74
2023/03/06 01:40:33;;;;;;;4.67;1.20;;;3.90;99.90;;;;;;5094146;28;20088;-74
2023/03/06 01:43:23;;;;;;;5.30;1.15;;;3.90;99.90;;;;;;5093910;28;20046;-74
2023/03/06 01:45:49;;;;;;;5.40;1.40;;;3.90;99.90;;;;;;5095830;28;20119;-74
2023/03/06 01:48:20;;;;;;;2.50;1.07;;;4.00;99.90;;;;;;5094014;28;20566;-74
2023/03/06 01:50:46;;;;;;;9.73;1.30;;;4.00;99.90;;;;;;5094067;28;20051;-74
2023/03/06 01:53:12;;;;;;;5.35;1.35;;;4.00;99.90;;;;;;5093899;28;20100;-74
2023/03/06 01:55:38;;;;;;;3.70;1.85;;;4.00;99.90;;;;;;5094516;28;20437;-74
2023/03/06 01:58:09;;;;;;;5.43;1.33;;;4.00;99.90;;;;;;5095537;28;20048;-73
2023/03/06 02:00:35;;;;;;;5.75;1.33;;;4.00;99.90;;;;;;5094557;28;20460;-73
2023/03/06 02:03:08;;;;;;;10.73;1.77;;;4.10;99.90;;;;;;5094617;28;20043;-73
2023/03/06 02:05:34;;;;;;;4.05;1.63;;;4.10;99.90;;;;;;5094055;28;20044;-73
2023/03/06 02:08:02;;;;;;;4.38;1.05;;;4.20;99.90;;;;;;5093408;28;20040;-73
2023/03/06 02:10:29;;;;;;;6.10;1.27;;;4.20;99.90;;;;;;5094653;28;20071;-73
2023/03/06 02:12:55;;;;;;;3.47;1.08;;;4.20;99.90;;;;;;5094626;28;20052;-73
2023/03/06 02:15:23;;;;;;;3.43;1.10;;;4.30;99.90;;;;;;5093254;28;20039;-74
2023/03/06 02:17:50;;;;;;;4.97;1.00;;;4.20;99.90;;;;;;5094501;28;20036;-73
2023/03/06 02:20:42;;;;;;;7.53;1.13;;;4.20;99.90;;;;;;5094369;28;20128;-74
2023/03/06 02:23:29;;;;;;;3.92;1.00;;;4.20;99.90;;;;;;5094447;28;20044;-74
2023/03/06 02:25:56;;;;;;;2.70;1.05;;;4.20;99.90;;;;;;5094377;28;20041;-74
2023/03/06 02:28:22;;;;;;;2.42;0.88;;;4.20;99.90;;;;;;5093726;28;20097;-74
2023/03/06 02:30:51;;;;;;;1.77;0.80;;;4.10;99.90;;;;;;5093695;28;20487;-74
2023/03/06 02:33:20;;;;;;;3.13;0.70;;;4.20;99.90;;;;;;5094189;28;20165;-74
2023/03/06 02:35:51;;;;;;;2.47;0.63;;;4.10;99.90;;;;;;5094044;28;20040;-74
2023/03/06 02:38:18;;;;;;;1.45;0.60;;;4.10;99.90;;;;;;5094163;28;20082;-74
2023/03/06 02:40:48;;;;;;;2.08;0.50;;;4.10;99.90;;;;;;5093785;28;20052;-74
2023/03/06 02:43:19;;;;;;;1.13;0.50;;;4.10;99.90;;;;;;5094525;28;20044;-74
2023/03/06 02:45:48;;;;;;;3.03;0.60;;;4.00;99.90;;;;;;5093985;28;20050;-74
2023/03/06 02:48:15;;;;;;;2.88;0.57;;;4.00;99.90;;;;;;5092717;28;20420;-75
2023/03/06 02:50:42;;;;;;;1.67;0.55;;;3.90;99.90;;;;;;5092821;28;20078;-74
2023/03/06 02:53:09;;;;;;;4.63;1.00;;;3.90;99.90;;;;;;5094299;28;20094;-74
2023/03/06 02:55:36;;;;;;;3.25;0.90;;;3.90;99.90;;;;;;5093479;28;20044;-74
2023/03/06 02:58:02;;;;;;;3.15;0.88;;;3.80;99.90;;;;;;5093772;28;20472;-75
2023/03/06 03:00:29;;;;;;;1.40;0.68;;;3.70;99.90;;;;;;5094550;28;20439;-75
2023/03/06 03:02:55;;;;;;;0.80;0.60;;;3.70;99.90;;;;;;5093028;28;20468;-75
2023/03/06 03:05:21;;;;;;;2.40;0.80;;;3.70;99.90;;;;;;5093424;28;20551;-75
2023/03/06 03:07:46;;;;;;;0.97;0.47;;;3.60;99.90;;;;;;5094255;28;20083;-75
2023/03/06 03:10:12;;;;;;;1.80;0.53;;;3.50;99.90;;;;;;5092108;28;20048;-75
2023/03/06 03:12:38;;;;;;;1.03;0.50;;;3.50;99.90;;;;;;5092998;28;20044;-75
2023/03/06 03:15:05;;;;;;;0.93;0.63;;;3.30;99.90;;;;;;5092802;28;20101;-75
2023/03/06 03:17:30;;;;;;;2.25;1.10;;;3.30;99.90;;;;;;5092573;28;20042;-76
2023/03/06 03:19:56;;;;;;;1.93;0.97;;;3.20;99.90;;;;;;5092433;28;20059;-75
2023/03/06 03:22:22;;;;;;;1.90;0.90;;;3.20;99.90;;;;;;5093696;28;20476;-75
2023/03/06 03:24:48;;;;;;;3.42;1.20;;;3.00;99.90;;;;;;5093761;28;20047;-75
2023/03/06 03:27:14;;;;;;;2.60;1.00;;;2.90;99.90;;;;;;5092877;28;20484;-75
2023/03/06 03:29:41;;;;;;;2.67;1.23;;;2.80;99.90;;;;;;5093512;28;20075;-75
2023/03/06 03:32:07;;;;;;;1.80;1.08;;;2.80;99.90;;;;;;5093083;28;20090;-75
2023/03/06 03:34:33;;;;;;;2.78;1.00;;;2.70;99.90;;;;;;5092485;28;20040;-75
2023/03/06 03:36:59;;;;;;;2.47;1.00;;;2.60;99.90;;;;;;5093380;28;20433;-75
2023/03/06 03:39:24;;;;;;;2.50;1.27;;;2.60;99.90;;;;;;5093376;28;20044;-75
2023/03/06 03:41:50;;;;;;;3.13;1.25;;;2.60;99.90;;;;;;5062674;28;20396;-74
2023/03/06 03:44:16;;;;;;;3.27;1.30;;;2.60;99.90;;;;;;5097422;28;20097;-74
2023/03/06 03:46:42;;;;;;;3.37;1.10;;;2.60;99.90;;;;;;5096210;28;20044;-75
2023/03/06 03:49:08;;;;;;;2.90;1.20;;;2.60;99.90;;;;;;5097055;28;20476;-74
2023/03/06 03:51:34;;;;;;;3.43;1.60;;;2.60;99.90;;;;;;5097291;28;20105;-74
2023/03/06 03:54:00;;;;;;;4.10;1.17;;;2.60;99.90;;;;;;5097278;28;20040;-74
2023/03/06 03:56:26;;;;;;;3.57;1.10;;;2.70;99.90;;;;;;5097073;28;20494;-74
2023/03/06 03:58:51;;;;;;;2.17;0.87;;;2.70;99.90;;;;;;5078998;28;20057;-75
2023/03/06 04:01:17;;;;;;;3.00;0.90;;;2.70;99.90;;;;;;5097308;28;20048;-74
2023/03/06 04:03:43;;;;;;;1.87;1.00;;;2.70;99.90;;;;;;5097076;28;20051;-74
2023/03/06 04:06:09;;;;;;;5.53;1.20;;;2.60;99.90;;;;;;5097036;28;20097;-74
2023/03/06 04:08:35;;;;;;;2.67;1.07;;;2.60;99.90;;;;;;5096945;28;20123;-74
2023/03/06 04:11:01;;;;;;;3.33;1.20;;;2.70;99.90;;;;;;5095996;28;20052;-74
2023/03/06 04:13:28;;;;;;;2.42;1.30;;;2.70;99.90;;;;;;5096873;28;20047;-74
2023/03/06 04:15:54;;;;;;;2.80;1.40;;;2.70;99.90;;;;;;5096805;28;20044;-74
2023/03/06 04:18:22;;;;;;;2.92;1.10;;;2.80;99.90;;;;;;5096464;28;20534;-74
2023/03/06 04:20:48;;;;;;;3.67;1.25;;;2.90;99.90;;;;;;5078354;28;20093;-74
2023/03/06 04:23:15;;;;;;;2.33;1.00;;;2.90;99.90;;;;;;5096647;28;20052;-74
2023/03/06 04:25:40;;;;;;;2.58;0.90;;;3.00;99.90;;;;;;5095573;28;20434;-74
2023/03/06 04:28:06;;;;;;;3.50;1.20;;;3.00;99.90;;;;;;5096573;28;20044;-74
2023/03/06 04:30:33;;;;;;;4.65;1.83;;;2.90;99.90;;;;;;5095270;28;20056;-74
2023/03/06 04:32:59;;;;;;;4.35;1.63;;;2.90;99.90;;;;;;5078428;28;20101;-74
2023/03/06 04:35:25;;;;;;;2.73;1.20;;;3.00;99.90;;;;;;5096381;28;20479;-74
2023/03/06 04:37:51;;;;;;;1.98;0.95;;;3.00;99.90;;;;;;5095707;28;20286;-74
2023/03/06 04:40:20;;;;;;;2.53;1.10;;;3.00;99.90;;;;;;5095940;28;20095;-74
2023/03/06 04:42:46;;;;;;;2.53;1.20;;;3.00;99.90;;;;;;5096513;28;20495;-74
2023/03/06 04:45:13;;;;;;;2.90;1.17;;;3.00;99.90;;;;;;5096329;28;20044;-74
2023/03/06 04:47:39;;;;;;;3.42;1.33;;;3.10;99.90;;;;;;5095263;28;20055;-74
2023/03/06 04:50:05;;;;;;;2.90;1.23;;;3.20;99.90;;;;;;5096206;28;20055;-74
2023/03/06 04:52:31;;;;;;;2.60;1.02;;;3.30;99.90;;;;;;5095969;28;20060;-74
2023/03/06 04:54:57;;;;;;;3.92;1.20;;;3.30;99.90;;;;;;5096017;28;20040;-74
2023/03/06 04:57:23;;;;;;;5.67;1.60;;;3.40;99.90;;;;;;5095039;28;20044;-73
2023/03/06 04:59:49;;;;;;;2.33;1.00;;;3.40;99.90;;;;;;5096204;28;20392;-73
2023/03/06 05:02:16;;;;;;;2.08;0.93;;;3.40;99.90;;;;;;5095948;28;20047;-74
2023/03/06 05:04:42;;;;;;;3.72;1.20;;;3.30;99.90;;;;;;5095892;28;20067;-74
2023/03/06 05:07:09;;;;;;;1.65;0.77;;;3.30;99.90;;;;;;5096426;28;20380;-74
2023/03/06 05:09:35;;;;;;;2.55;1.20;;;3.30;99.90;;;;;;5096564;28;20047;-74
2023/03/06 05:12:02;;;;;;;3.17;1.17;;;3.30;99.90;;;;;;5095816;28;20067;-74
2023/03/06 05:14:30;;;;;;;2.17;1.15;;;3.30;99.90;;;;;;5095596;28;20132;-74
2023/03/06 05:16:56;;;;;;;2.95;1.30;;;3.30;99.90;;;;;;5095566;28;20044;-74
2023/03/06 05:19:22;;;;;;;3.37;1.10;;;3.30;99.90;;;;;;5094294;28;20040;-74
2023/03/06 05:21:47;;;;;;;2.47;1.07;;;3.40;99.90;;;;;;5095629;28;20044;-75
2023/03/06 05:24:13;;;;;;;2.13;1.10;;;3.30;99.90;;;;;;5095359;28;20138;-75
2023/03/06 05:26:39;;;;;;;2.03;1.00;;;3.30;99.90;;;;;;5095965;28;20040;-73
2023/03/06 05:29:05;;;;;;;2.03;0.93;;;3.30;99.90;;;;;;5077668;28;20082;-74
2023/03/06 05:31:31;;;;;;;3.20;1.07;;;3.20;99.90;;;;;;5095882;28;20048;-73
2023/03/06 05:33:57;;;;;;;3.23;1.00;;;3.10;99.90;;;;;;5094071;28;20044;-75
2023/03/06 05:36:23;;;;;;;3.08;1.13;;;3.00;99.90;;;;;;5094009;28;20111;-74
2023/03/06 05:38:49;;;;;;;3.72;1.17;;;2.90;99.90;;;;;;5095734;28;20044;-74
2023/03/06 05:41:15;;;;;;;3.10;1.20;;;2.90;99.90;;;;;;5095519;28;20089;-74
2023/03/06 05:43:41;;;;;;;2.38;1.08;;;2.90;99.90;;;;;;5095124;28;20048;-74
2023/03/06 05:46:07;;;;;;;2.03;1.10;;;2.80;99.90;;;;;;5094992;28;20067;-74
2023/03/06 05:48:35;;;;;;;2.25;1.20;;;2.80;99.90;;;;;;5094967;28;20380;-74
2023/03/06 05:51:01;;;;;;;1.98;1.17;;;2.80;99.90;;;;;;5095500;28;20048;-74
2023/03/06 05:53:28;;;;;;;3.90;1.30;;;2.70;99.90;;;;;;5094932;28;20139;-74
2023/03/06 05:56:02;;;;;;;3.30;1.42;;;2.80;99.90;;;;;;5094809;28;20502;-74
2023/03/06 05:58:29;;;;;;;3.90;1.40;;;2.80;99.90;;;;;;5095681;28;20130;-74
2023/03/06 06:00:55;;;;;;;2.83;1.27;;;2.80;99.90;;;;;;5094791;28;20109;-74
2023/03/06 06:03:21;;;;;;;4.85;1.33;;;2.90;99.90;;;;;;5094722;28;20089;-74
2023/03/06 06:05:47;;;;;;;4.47;1.40;;;2.90;99.90;;;;;;5095234;28;20464;-74
2023/03/06 06:08:13;;;;;;;3.05;1.50;;;2.90;99.90;;;;;;5094712;28;20127;-74
2023/03/06 06:10:38;;;;;;;2.93;1.40;;;2.80;99.90;;;;;;5094919;28;20505;-75
2023/03/06 06:13:04;;;;;;;6.60;1.40;;;2.80;99.90;;;;;;5094713;28;20131;-76
2023/03/06 06:15:30;;;;;;;2.63;1.40;;;2.70;99.90;;;;;;5093990;28;20123;-77
2023/03/06 06:17:56;;;;;;;3.00;1.20;;;2.70;99.90;;;;;;5095273;28;20475;-76
2023/03/06 06:20:23;;;;;;;3.72;1.10;;;2.70;99.90;;;;;;5076254;28;20056;-76
2023/03/06 06:22:50;;;;;;;4.25;1.50;;;2.60;99.90;;;;;;5094268;28;20096;-76
2023/03/06 06:25:16;;;;;;;2.47;1.20;;;2.60;99.90;;;;;;5093448;28;20132;-74
2023/03/06 06:27:42;;;;;;;3.38;1.30;;;2.60;99.90;;;;;;5094523;28;20051;-74
2023/03/06 06:30:10;;;;;;;4.50;1.50;;;2.60;99.90;;;;;;5094290;28;20391;-74
2023/03/06 06:32:36;;;;;;;4.15;1.60;;;2.50;99.90;;;;;;5094243;28;20048;-74
2023/03/06 06:35:02;;;;;;;3.23;1.70;;;2.50;99.90;;;;;;5094894;28;20051;-74
2023/03/06 06:37:28;;;;;;;5.65;1.70;;;2.50;99.90;;;;;;5094726;28;20101;-74
2023/03/06 06:39:54;;;;;;;3.77;1.93;;;2.60;99.90;;;;;;5093856;28;20055;-74
2023/03/06 06:42:20;;;;;;;3.80;1.70;;;2.60;99.90;;;;;;5075692;28;20079;-77
2023/03/06 06:44:46;;;;;;;4.03;2.33;;;2.50;99.90;;;;;;5094015;28;20044;-76
2023/03/06 06:47:11;;;;;;;4.27;1.67;;;2.60;99.90;;;;;;5094503;28;20052;-72
2023/03/06 06:49:38;;;;;;;4.80;1.57;;;2.60;99.90;;;;;;5092914;28;20396;-75
2023/03/06 06:52:05;;;;;;;5.25;1.92;;;2.70;99.90;;;;;;5093844;28;20127;-73
2023/03/06 06:54:32;;;;;;;3.13;1.50;;;2.70;99.90;;;;;;5093802;28;20048;-73
2023/03/06 06:56:58;;;;;;;5.60;1.75;;;2.70;99.90;;;;;;5093768;28;20047;-73
2023/03/06 06:59:23;;;;;;;5.07;1.80;;;2.70;99.90;;;;;;5093846;28;20463;-73
2023/03/06 07:01:52;;;;;;;6.23;2.00;;;2.70;99.90;;;;;;5075922;28;20117;-73
2023/03/06 07:04:18;;;;;;;2.42;1.33;;;2.70;99.90;;;;;;5093736;28;20047;-73
2023/03/06 07:06:44;;;;;;;3.53;1.70;;;2.70;99.90;;;;;;5093684;28;20051;-73
2023/03/06 07:09:11;;;;;;;3.55;1.80;;;2.70;99.90;;;;;;5093540;28;20044;-73
2023/03/06 07:11:38;;;;;;;3.67;1.73;;;2.70;99.90;;;;;;5093678;28;20040;-73
2023/03/06 07:14:04;;;;;;;3.65;1.55;;;2.70;99.90;;;;;;5092841;28;20051;-73
2023/03/06 07:16:30;;;;;;;4.20;1.80;;;2.80;99.90;;;;;;5092109;28;20044;-73
2023/03/06 07:18:56;;;;;;;3.17;1.67;;;2.90;99.90;;;;;;5093991;28;20043;-73
2023/03/06 07:21:22;;;;;;;3.57;1.83;;;3.10;99.90;;;;;;5092193;28;20044;-73
2023/03/06 07:23:47;;;;;;;4.00;1.77;;;3.10;99.90;;;;;;5093447;28;20101;-73
2023/03/06 07:26:13;;;;;;;3.30;1.57;;;3.30;99.90;;;;;;5093159;28;20048;-73
2023/03/06 07:28:39;;;;;;;6.73;2.30;;;3.40;99.90;;;;;;5075478;28;20050;-73
2023/03/06 07:31:10;;;;;;;3.40;1.70;;;3.50;99.90;;;;;;5093489;28;20047;-73
2023/03/06 07:33:37;;;;;;;5.05;1.67;;;3.60;99.90;;;;;;5092303;28;20040;-73
2023/03/06 07:36:06;;;;;;;3.97;1.80;;;3.60;99.90;;;;;;5093380;28;20430;-73
2023/03/06 07:38:32;;;;;;;3.08;1.50;;;3.60;99.90;;;;;;5093432;28;20074;-73
2023/03/06 07:40:58;;;;;;;5.63;1.40;;;3.70;99.90;;;;;;5093733;28;20056;-73
2023/03/06 07:43:24;;;;;;;3.20;1.50;;;3.70;99.90;;;;;;5093368;28;20549;-73
2023/03/06 07:45:58;;;;;;;5.13;1.63;;;3.80;99.90;;;;;;5075781;28;20122;-74
2023/03/06 07:48:24;;;;;;;6.85;1.63;;;3.80;99.90;;;;;;5093071;28;20048;-73
2023/03/06 07:51:01;;;;;;;5.50;1.60;;;3.90;99.90;;;;;;5059643;28;20050;-73
2023/03/06 07:53:28;;;;;;;3.28;1.38;;;3.90;99.90;;;;;;5075772;28;20384;-73
2023/03/06 07:55:53;;;;;;;4.32;1.20;;;3.90;99.90;;;;;;5091970;28;20074;-73
2023/03/06 07:58:19;;;;;;;5.77;1.73;;;4.00;99.90;;;;;;5092578;28;20043;-73
2023/03/06 08:00:45;;;;;;;3.27;1.20;;;4.10;99.90;;;;;;5093733;28;20476;-73
2023/03/06 08:03:11;;;;;;;6.63;1.50;;;4.30;99.90;;;;;;5093265;28;20131;-73
2023/03/06 08:05:37;;;;;;;3.40;1.27;;;4.40;99.90;;;;;;5094002;28;20047;-73
2023/03/06 08:08:03;;;;;;;6.75;1.50;;;4.40;99.90;;;;;;5093106;28;20074;-74
2023/03/06 08:10:29;;;;;;;3.50;1.30;;;4.50;99.90;;;;;;5093154;28;20043;-73
2023/03/06 08:12:55;;;;;;;5.57;1.55;;;4.50;99.90;;;;;;5093124;28;20087;-73
2023/03/06 08:15:21;;;;;;;3.17;1.20;;;4.60;99.90;;;;;;5093048;28;20079;-73
2023/03/06 08:17:46;;;;;;;3.00;1.40;;;4.60;99.90;;;;;;5093160;28;20488;-73
2023/03/06 08:20:13;;;;;;;4.67;1.50;;;4.70;99.90;;;;;;5093427;28;20048;-73
2023/03/06 08:22:39;;;;;;;4.60;1.40;;;4.60;99.90;;;;;;5091754;28;20052;-73
2023/03/06 08:25:06;;;;;;;3.28;1.48;;;4.60;99.90;;;;;;5093007;28;20051;-73
2023/03/06 08:27:33;;;;;;;4.03;1.25;;;4.70;99.90;;;;;;5093265;28;20391;-74
2023/03/06 08:29:59;;;;;;;4.85;1.30;;;4.70;99.90;;;;;;5096317;28;20048;-73
2023/03/06 08:32:25;;;;;;;6.10;1.70;;;4.70;99.90;;;;;;5095383;28;20154;-73
2023/03/06 08:34:51;;;;;;;3.95;1.40;;;4.70;99.90;;;;;;5095047;28;20500;-74
2023/03/06 08:37:17;;;;;;;4.40;1.88;;;4.70;99.90;;;;;;5096447;28;20052;-74
2023/03/06 08:39:43;;;;;;;4.77;1.80;;;4.70;99.90;;;;;;5096186;28;20051;-73
2023/03/06 08:42:09;;;;;;;5.57;1.60;;;4.70;99.90;;;;;;5096006;28;20087;-73
2023/03/06 08:44:35;;;;;;;5.20;1.45;;;4.70;99.90;;;;;;5095167;28;20090;-73
2023/03/06 08:47:02;;;;;;;4.17;1.60;;;4.70;99.90;;;;;;5096831;28;20040;-73
2023/03/06 08:49:28;;;;;;;5.88;1.50;;;4.80;99.90;;;;;;5096308;28;20080;-74
2023/03/06 08:51:53;;;;;;;6.17;1.60;;;4.80;99.90;;;;;;5095877;28;20087;-74
2023/03/06 08:54:19;;;;;;;4.57;1.43;;;4.80;99.90;;;;;;5094952;28;20055;-74
2023/03/06 08:56:45;;;;;;;3.10;1.27;;;4.90;99.90;;;;;;5094865;28;20150;-74
2023/03/06 08:59:12;;;;;;;7.90;1.60;;;4.90;99.90;;;;;;5096109;28;20075;-74
2023/03/06 09:01:39;;;;;;;6.78;2.03;;;5.00;99.90;;;;;;5096013;28;20106;-73
2023/03/06 09:04:08;;;;;;;6.07;1.52;;;5.00;99.90;;;;;;5095733;28;20093;-73
2023/03/06 09:06:38;;;;;;;3.90;1.55;;;5.10;99.90;;;;;;5095994;28;20040;-73
2023/03/06 09:09:04;;;;;;;5.35;1.60;;;5.20;99.90;;;;;;5095898;28;20084;-73
2023/03/06 09:11:30;;;;;;;5.28;1.10;;;5.20;99.90;;;;;;5095558;28;20388;-74
2023/03/06 09:13:57;;;;;;;6.60;1.57;;;5.30;99.90;;;;;;5095760;28;20048;-73
2023/03/06 09:16:23;;;;;;;5.30;1.05;;;5.40;99.90;;;;;;5094502;28;20451;-74
2023/03/06 09:18:51;;;;;;;4.60;0.90;;;5.40;99.90;;;;;;5095749;28;20054;-73
2023/03/06 09:21:18;;;;;;;4.68;1.63;;;5.50;99.90;;;;;;5096200;28;20043;-74
2023/03/06 09:23:44;;;;;;;3.15;0.90;;;5.50;99.90;;;;;;5094475;28;20052;-73
2023/03/06 09:26:11;;;;;;;5.38;1.08;;;5.60;99.90;;;;;;5095553;28;20083;-73
2023/03/06 09:28:38;;;;;;;3.28;1.27;;;5.60;99.90;;;;;;5095774;28;20048;-73
2023/03/06 09:31:12;;;;;;;4.20;1.30;;;5.60;99.90;;;;;;5095981;28;20052;-73
2023/03/06 09:33:38;;;;;;;4.30;1.20;;;5.60;99.90;;;;;;5096035;28;20044;-73
2023/03/06 09:36:05;;;;;;;6.97;1.23;;;5.50;99.90;;;;;;5095011;28;20537;-73
2023/03/06 09:38:31;;;;;;;5.88;1.33;;;5.50;99.90;;;;;;5094887;28;20052;-73
2023/03/06 09:40:57;;;;;;;3.80;1.07;;;5.50;99.90;;;;;;5095192;28;20063;-73
2023/03/06 09:43:34;;;;;;;5.07;1.03;;;5.50;99.90;;;;;;5094169;28;20472;-73
2023/03/06 09:46:06;;;;;;;2.95;1.00;;;5.50;99.90;;;;;;5095252;28;20051;-73
2023/03/06 09:48:46;;;;;;;4.53;1.08;;;5.50;99.90;;;;;;5094881;28;20040;-73
2023/03/06 09:51:16;;;;;;;5.30;1.20;;;5.50;99.90;;;;;;5094410;28;20044;-74
2023/03/06 09:53:54;;;;;;;6.13;1.38;;;5.60;99.90;;;;;;5095041;28;20043;-73
2023/03/06 09:56:23;;;;;;;4.18;1.23;;;5.60;99.90;;;;;;5093684;28;20048;-74
2023/03/06 09:59:04;;;;;;;2.55;0.98;;;5.70;99.90;;;;;;5094816;28;20488;-73
2023/03/06 10:01:35;;;;;;;4.68;0.98;;;5.70;99.90;;;;;;5094853;28;20040;-73
2023/03/06 10:04:25;;;;;;;4.68;1.20;;;5.80;99.90;;;;;;5094807;28;20048;-74
2023/03/06 10:06:55;;;;;;;5.85;0.90;;;5.80;99.90;;;;;;5095591;28;20099;-73
2023/03/06 10:09:41;;;;;;;4.30;1.10;;;5.90;99.90;;;;;;5095313;28;20051;-73
2023/03/06 10:12:24;;;;;;;6.55;1.25;;;5.90;99.90;;;;;;5094742;28;20109;-73
2023/03/06 10:15:19;;;;;;;6.88;1.20;;;6.00;99.90;;;;;;5078054;28;20044;-74
2023/03/06 10:17:45;;;;;;;5.65;1.42;;;6.00;99.90;;;;;;5090748;28;20082;-74
2023/03/06 10:20:26;;;;;;;3.67;0.87;;;6.00;99.90;;;;;;5093869;28;20465;-73
2023/03/06 10:23:09;;;;;;;3.83;0.82;;;6.00;99.90;;;;;;5094380;28;20087;-73
2023/03/06 10:26:21;;;;;;;4.32;0.85;;;6.00;99.90;;;;;;5095326;28;20340;-73
2023/03/06 10:29:07;;;;;;;3.88;0.90;;;5.90;99.90;;;;;;5011991;28;20049;-74
2023/03/06 10:31:34;;;;;;;4.45;1.08;;;5.90;99.90;;;;;;5012678;28;20184;-73
2023/03/06 10:34:27;;;;;;;2.95;0.73;;;5.90;99.90;;;;;;5059872;28;20206;-73
2023/03/06 10:36:53;;;;;;;3.30;0.80;;;5.80;99.90;;;;;;5094788;28;20399;-73
2023/03/06 10:39:21;;;;;;;3.40;0.90;;;5.80;99.90;;;;;;5092719;28;20463;-73
2023/03/06 10:41:48;;;;;;;5.38;0.80;;;5.70;99.90;;;;;;5094552;28;20129;-73
2023/03/06 10:44:14;;;;;;;2.90;0.60;;;5.70;99.90;;;;;;5092840;28;20048;-73
2023/03/06 10:46:45;;;;;;;2.53;0.90;;;5.70;99.90;;;;;;5093047;28;20048;-73
2023/03/06 10:49:26;;;;;;;4.97;0.80;;;5.70;99.90;;;;;;5094049;28;20135;-73
2023/03/06 10:52:04;;;;;;;3.75;0.95;;;5.70;99.90;;;;;;5092610;28;20048;-73
2023/03/06 10:54:36;;;;;;;3.90;0.90;;;5.70;99.90;;;;;;5094492;28;20047;-73
2023/03/06 10:57:22;;;;;;;2.40;0.60;;;5.70;99.90;;;;;;5093535;28;20489;-73
2023/03/06 10:59:54;;;;;;;4.28;0.80;;;5.80;99.90;;;;;;5094437;28;20048;-74
2023/03/06 11:02:39;;;;;;;5.30;1.65;;;5.70;99.90;;;;;;5093623;28;20052;-73
2023/03/06 11:05:17;;;;;;;2.00;0.65;;;5.70;99.90;;;;;;5093443;28;20070;-73
2023/03/06 11:07:59;;;;;;;2.45;0.70;;;5.60;99.90;;;;;;5093787;28;20131;-74
2023/03/06 11:10:27;;;;;;;5.93;0.82;;;5.60;99.90;;;;;;5093682;28;20067;-73
2023/03/06 11:12:58;;;;;;;3.08;0.88;;;5.50;99.90;;;;;;5092706;28;20130;-73
2023/03/06 11:15:26;;;;;;;3.55;0.77;;;5.50;99.90;;;;;;5093525;28;20420;-73
2023/03/06 11:18:03;;;;;;;5.20;0.82;;;5.40;99.90;;;;;;5092901;28;20105;-73
2023/03/06 11:20:50;;;;;;;7.45;1.85;;;5.50;99.90;;;;;;5092899;28;20084;-73
2023/03/06 11:23:35;;;;;;;3.67;0.70;;;5.50;99.90;;;;;;5093872;28;20079;-73
2023/03/06 11:26:07;;;;;;;4.25;0.70;;;5.60;99.90;;;;;;5092643;28;20043;-74
2023/03/06 11:28:39;;;;;;;3.47;0.80;;;5.80;99.90;;;;;;5093521;28;20510;-73
2023/03/06 11:31:19;;;;;;;5.45;0.93;;;6.00;99.90;;;;;;5093819;28;20081;-74
2023/03/06 11:33:55;;;;;;;3.60;0.80;;;6.10;99.90;;;;;;5092433;28;20126;-73
2023/03/06 11:36:26;;;;;;;3.53;0.63;;;6.30;99.90;;;;;;5092180;28;20040;-73
2023/03/06 11:38:53;;;;;;;2.17;0.70;;;6.40;99.90;;;;;;5093028;28;20172;-73
2023/03/06 11:41:55;;;;;;;7.10;1.08;;;6.40;99.90;;;;;;5091742;28;20142;-73
2023/03/06 11:44:51;;;;;;;3.97;0.70;;;6.30;99.90;;;;;;5093957;28;20044;-74
2023/03/06 11:47:47;;;;;;;6.22;1.10;;;6.30;99.90;;;;;;5060205;28;20480;-73
2023/03/06 11:50:12;;;;;;;3.60;0.70;;;6.20;99.90;;;;;;5091491;28;20098;-73
2023/03/06 11:52:52;;;;;;;2.23;0.67;;;6.20;99.90;;;;;;5093325;28;20090;-73
2023/03/06 11:55:48;;;;;;;3.13;0.60;;;6.20;99.90;;;;;;5093035;28;20052;-73
2023/03/06 11:58:51;;;;;;;3.20;0.85;;;6.30;99.90;;;;;;5092241;28;20492;-73
2023/03/06 12:01:40;;;;;;;2.30;0.65;;;6.40;99.90;;;;;;5094294;28;20403;-74
2023/03/06 12:04:24;;;;;;;3.40;0.65;;;6.50;99.90;;;;;;5097146;28;20040;-73
2023/03/06 12:07:14;;;;;;;3.28;0.90;;;6.50;99.90;;;;;;5079171;28;20164;-73
2023/03/06 12:10:00;;;;;;;4.78;0.70;;;6.60;99.90;;;;;;5096032;28;20504;-73
2023/03/06 12:12:36;;;;;;;2.83;0.88;;;6.70;99.90;;;;;;5096319;28;20051;-74
2023/03/06 12:15:35;;;;;;;3.22;0.70;;;6.70;99.90;;;;;;5097785;28;20135;-73
2023/03/06 12:18:12;;;;;;;2.72;0.60;;;6.80;99.90;;;;;;5097662;28;20113;-73
2023/03/06 12:21:17;;;;;;;2.83;0.70;;;6.80;99.90;;;;;;5097382;28;20344;-73
2023/03/06 12:24:18;;;;;;;3.67;0.70;;;6.90;99.90;;;;;;5097070;28;20067;-73
2023/03/06 12:27:14;;;;;;;2.60;0.65;;;6.90;99.90;;;;;;5051593;28;20044;-73
2023/03/06 12:30:20;;;;;;;1.75;0.73;;;6.90;99.90;;;;;;5096581;28;20058;-73
2023/03/06 12:32:52;;;;;;;1.80;0.70;;;7.00;99.90;;;;;;5014373;28;20046;-73
2023/03/06 12:35:49;;;;;;;2.15;0.70;;;7.00;99.90;;;;;;5083550;28;20290;-73
2023/03/06 12:38:23;;;;;;;4.05;0.75;;;7.00;99.90;;;;;;5096730;28;20056;-73
2023/03/06 12:40:59;;;;;;;4.63;1.35;;;7.00;99.90;;;;;;5095959;28;20411;-73
2023/03/06 12:43:43;;;;;;;6.45;1.23;;;7.00;99.90;;;;;;5096314;28;20058;-73
2023/03/06 12:46:20;;;;;;;2.42;0.80;;;7.00;99.90;;;;;;5096853;28;20418;-73
2023/03/06 12:49:04;;;;;;;4.53;1.08;;;7.00;99.90;;;;;;5096567;28;20118;-74
2023/03/06 12:51:31;;;;;;;4.25;0.75;;;7.00;99.90;;;;;;5096277;28;20048;-74
2023/03/06 12:54:00;;;;;;;7.78;0.90;;;7.10;99.90;;;;;;5094936;28;20048;-73
2023/03/06 12:56:27;;;;;;;1.83;0.63;;;7.20;99.90;;;;;;5094856;28;20080;-73
2023/03/06 12:58:54;;;;;;;2.35;0.80;;;7.10;99.90;;;;;;5096043;28;20054;-73
2023/03/06 13:01:54;;;;;;;3.72;1.02;;;7.20;99.90;;;;;;5095945;28;20051;-74
2023/03/06 13:04:23;;;;;;;2.35;0.90;;;7.20;99.90;;;;;;5095979;28;20480;-73
2023/03/06 13:06:54;;;;;;;3.90;0.90;;;7.20;99.90;;;;;;5095839;28;20476;-73
2023/03/06 13:09:52;;;;;;;3.00;0.80;;;7.20;99.90;;;;;;5095663;28;20118;-74
2023/03/06 13:12:29;;;;;;;3.88;0.80;;;7.20;99.90;;;;;;5095763;28;20119;-74